Time;durP1;ratioP1;P1;durP2;ratioP2;P2;SDS_P1;SDS_P2;PMS_P1;PMS_P2;Temp;Humidity;BMP_temperature;BMP_pressure;BME280_temperature;BME280_humidity;BME280_pressure;Samples;Min_cycle;Max_cycle;Signal;HPM_P1;HPM_P2
2021/04/12 00:02:33;;;;;;;2.17;1.90;;;;;;;-145.19;100.00;59999.88;5000788;28;20042;-67
2021/04/12 00:05:17;;;;;;;2.92;1.95;;;;;;;-145.19;100.00;59999.88;4990585;28;20065;-67
2021/04/12 00:08:03;;;;;;;3.47;1.90;;;;;;;-145.19;100.00;59999.88;5004875;28;20042;-67
2021/04/12 00:10:57;;;;;;;2.47;1.27;;;;;;;-145.19;100.00;59999.88;5004889;28;20409;-67
2021/04/12 00:13:42;;;;;;;1.33;1.23;;;;;;;-145.19;100.00;59999.88;5005580;28;20050;-67
2021/04/12 00:16:24;;;;;;;1.55;1.20;;;;;;;-145.19;100.00;59999.88;5002883;28;20121;-67
2021/04/12 00:19:13;;;;;;;1.27;1.17;;;;;;;-145.19;100.00;59999.88;4999839;28;20314;-67
2021/04/12 00:21:49;;;;;;;1.10;1.00;;;;;;;-145.19;100.00;59999.88;4998698;28;20046;-68
2021/04/12 00:24:23;;;;;;;0.90;0.85;;;;;;;-145.19;100.00;59999.88;5000169;28;20553;-67
2021/04/12 00:27:04;;;;;;;1.23;1.13;;;;;;;-145.19;100.00;59999.88;4999234;28;20135;-67
2021/04/12 00:29:41;;;;;;;0.95;0.95;;;;;;;-145.19;100.00;59999.88;5001077;28;20049;-68
2021/04/12 00:32:22;;;;;;;1.25;1.15;;;;;;;-145.19;100.00;59999.88;5000323;28;20046;-67
2021/04/12 00:35:02;;;;;;;1.05;1.00;;;;;;;-145.19;100.00;59999.88;5000887;28;20061;-67
2021/04/12 00:37:37;;;;;;;1.27;1.17;;;;;;;-145.19;100.00;59999.88;4999640;28;20049;-67
2021/04/12 00:40:31;;;;;;;2.63;1.42;;;;;;;-145.19;100.00;59999.88;5005403;28;20516;-67
2021/04/12 00:43:25;;;;;;;1.77;1.52;;;;;;;-145.19;100.00;59999.88;5003761;28;20129;-67
2021/04/12 00:46:18;;;;;;;2.08;1.27;;;;;;;-145.19;100.00;59999.88;5002525;28;20502;-67
2021/04/12 00:49:00;;;;;;;1.48;1.38;;;;;;;-145.19;100.00;59999.88;5003032;28;20046;-66
2021/04/12 00:51:58;;;;;;;2.33;1.48;;;;;;;-145.19;100.00;59999.88;5009635;28;20049;-67
2021/04/12 00:54:49;;;;;;;1.92;1.45;;;;;;;-145.19;100.00;59999.88;5005139;28;20473;-67
2021/04/12 00:57:44;;;;;;;1.95;1.60;;;;;;;-145.19;100.00;59999.88;5003138;28;20050;-67
2021/04/12 01:00:34;;;;;;;2.75;1.60;;;;;;;-145.19;100.00;59999.88;5012201;28;20217;-67
2021/04/12 01:03:19;;;;;;;2.15;1.70;;;;;;;-145.19;100.00;59999.88;5004301;28;20136;-67
2021/04/12 01:06:06;;;;;;;2.03;1.70;;;;;;;-145.19;100.00;59999.88;5002023;28;20078;-67
2021/04/12 01:08:53;;;;;;;1.80;1.70;;;;;;;-145.19;100.00;59999.88;5004974;28;20133;-67
2021/04/12 01:11:46;;;;;;;2.45;1.55;;;;;;;-145.19;100.00;59999.88;5005197;28;20451;-67
2021/04/12 01:14:39;;;;;;;1.63;1.50;;;;;;;-145.19;100.00;59999.88;5004495;28;20049;-67
2021/04/12 01:17:27;;;;;;;1.80;1.70;;;;;;;-145.19;100.00;59999.88;5004313;28;20779;-68
2021/04/12 01:20:19;;;;;;;2.30;1.95;;;;;;;-145.19;100.00;59999.88;5014095;28;20108;-67
2021/04/12 01:22:54;;;;;;;2.47;2.20;;;;;;;-145.19;100.00;59999.88;5010738;28;20060;-68
2021/04/12 01:25:57;;;;;;;3.25;2.80;;;;;;;-145.19;100.00;59999.88;5007814;28;20544;-67
2021/04/12 01:29:21;;;;;;;3.75;2.92;;;;;;;-145.19;100.00;59999.88;5003877;28;20042;-67
2021/04/12 01:31:59;;;;;;;6.75;2.38;;;;;;;-145.19;100.00;59999.88;4970626;28;20047;-68
2021/04/12 01:35:04;;;;;;;1.80;1.70;;;;;;;-145.19;100.00;59999.88;4962828;28;20128;-67
2021/04/12 01:37:43;;;;;;;1.40;1.30;;;;;;;-145.19;100.00;59999.88;5005387;28;20494;-67
2021/04/12 01:40:18;;;;;;;2.08;1.80;;;;;;;-145.19;100.00;59999.88;5004876;28;20045;-68
2021/04/12 01:42:53;;;;;;;1.75;1.65;;;;;;;-145.19;100.00;59999.88;5019261;28;20501;-67
2021/04/12 01:45:19;;;;;;;1.70;1.60;;;;;;;-145.19;100.00;59999.88;5004227;28;20531;-67
2021/04/12 01:48:23;;;;;;;1.73;1.30;;;;;;;-145.19;100.00;59999.88;5000245;28;20050;-67
2021/04/12 01:51:27;;;;;;;1.80;1.70;;;;;;;-145.19;100.00;59999.88;5004383;28;20077;-67
2021/04/12 01:53:59;;;;;;;1.67;1.55;;;;;;;-145.19;100.00;59999.88;4999486;28;20058;-67
2021/04/12 01:56:35;;;;;;;1.73;1.63;;;;;;;-145.19;100.00;59999.88;5003452;28;20673;-67
2021/04/12 01:59:25;;;;;;;1.55;1.40;;;;;;;-145.19;100.00;59999.88;5005016;28;20108;-67
2021/04/12 02:02:28;;;;;;;2.50;1.60;;;;;;;-145.19;100.00;59999.88;5001633;28;20137;-67
2021/04/12 02:05:32;;;;;;;1.73;1.63;;;;;;;-145.19;100.00;59999.88;5020633;28;20053;-67
2021/04/12 02:08:04;;;;;;;1.85;1.75;;;;;;;-145.19;100.00;59999.88;5002699;28;20414;-67
2021/04/12 02:10:48;;;;;;;1.75;1.65;;;;;;;-145.19;100.00;59999.88;5001920;28;20502;-67
2021/04/12 02:13:46;;;;;;;2.20;2.00;;;;;;;-145.19;100.00;59999.88;5001436;28;20061;-67
2021/04/12 02:16:32;;;;;;;2.30;1.70;;;;;;;-145.19;100.00;59999.88;5006155;28;20121;-67
2021/04/12 02:19:21;;;;;;;1.80;1.60;;;;;;;-145.19;100.00;59999.88;5003645;28;20042;-67
2021/04/12 02:21:58;;;;;;;;;;;;;;;-145.19;100.00;59999.88;5008575;28;20505;-68
2021/04/12 02:24:41;;;;;;;2.25;1.65;;;;;;;-145.19;100.00;59999.88;5004794;28;19957;-68
2021/04/12 02:27:28;;;;;;;2.42;1.92;;;;;;;-145.19;100.00;59999.88;5004128;28;20172;-68
2021/04/12 02:29:57;;;;;;;2.38;1.95;;;;;;;-145.19;100.00;59999.88;5003460;28;20063;-67
2021/04/12 02:32:54;;;;;;;1.85;1.67;;;;;;;-145.19;100.00;59999.88;5008599;28;20383;-67
2021/04/12 02:35:39;;;;;;;3.83;1.75;;;;;;;-145.19;100.00;59999.88;5003886;28;20125;-67
2021/04/12 02:38:25;;;;;;;1.60;1.50;;;;;;;-145.19;100.00;59999.88;5001140;28;20096;-69
2021/04/12 02:41:13;;;;;;;1.73;1.60;;;;;;;-145.19;100.00;59999.88;5011556;28;20048;-68
2021/04/12 02:43:56;;;;;;;2.40;2.00;;;;;;;-145.19;100.00;59999.88;5004276;28;20042;-67
2021/04/12 02:46:59;;;;;;;1.85;1.70;;;;;;;-145.19;100.00;59999.88;5002131;28;20069;-67
2021/04/12 02:49:45;;;;;;;2.33;1.50;;;;;;;-145.19;100.00;59999.88;5004575;28;20042;-67
2021/04/12 02:52:42;;;;;;;1.70;1.60;;;;;;;-145.19;100.00;59999.88;5020044;28;20053;-67
2021/04/12 02:55:30;;;;;;;4.13;1.50;;;;;;;-145.19;100.00;59999.88;5012633;28;20049;-67
2021/04/12 02:58:14;;;;;;;1.75;1.65;;;;;;;-145.19;100.00;59999.88;5001857;28;20125;-67
2021/04/12 03:01:05;;;;;;;2.10;1.50;;;;;;;-145.19;100.00;59999.88;5005516;28;20128;-66
2021/04/12 03:03:53;;;;;;;1.55;1.45;;;;;;;-145.19;100.00;59999.88;5006781;28;20070;-66
2021/04/12 03:06:50;;;;;;;2.63;1.60;;;;;;;-145.19;100.00;59999.88;5007256;28;20338;-68
2021/04/12 03:09:45;;;;;;;1.80;1.70;;;;;;;-145.19;100.00;59999.88;5008127;28;20046;-67
2021/04/12 03:12:37;;;;;;;2.15;1.90;;;;;;;-145.19;100.00;59999.88;5000615;28;20411;-68
2021/04/12 03:15:28;;;;;;;1.70;1.60;;;;;;;-145.19;100.00;59999.88;5007685;28;20096;-67
2021/04/12 03:18:25;;;;;;;1.23;1.13;;;;;;;-145.19;100.00;59999.88;5003397;28;20060;-67
2021/04/12 03:21:03;;;;;;;1.50;1.40;;;;;;;-145.19;100.00;59999.88;5004781;28;20467;-67
2021/04/12 03:23:54;;;;;;;1.50;1.40;;;;;;;-145.19;100.00;59999.88;5001985;28;20093;-67
2021/04/12 03:26:43;;;;;;;1.90;1.48;;;;;;;-145.19;100.00;59999.88;5006972;28;20073;-68
2021/04/12 03:29:28;;;;;;;1.70;1.60;;;;;;;-145.19;100.00;59999.88;5004771;28;20046;-68
2021/04/12 03:32:13;;;;;;;1.70;1.60;;;;;;;-145.19;100.00;59999.88;5011356;28;20082;-67
2021/04/12 03:35:10;;;;;;;2.08;1.90;;;;;;;-145.19;100.00;59999.88;5007065;28;21035;-67
2021/04/12 03:37:56;;;;;;;2.42;2.17;;;;;;;-145.19;100.00;59999.88;5005752;28;20042;-68
2021/04/12 03:40:26;;;;;;;2.20;2.00;;;;;;;-145.19;100.00;59999.88;5016022;28;20113;-67
2021/04/12 03:43:13;;;;;;;2.58;1.92;;;;;;;-145.19;100.00;59999.88;5009016;28;20053;-68
2021/04/12 03:46:16;;;;;;;2.80;2.60;;;;;;;-145.19;100.00;59999.88;5006911;28;20041;-67
2021/04/12 03:49:07;;;;;;;4.03;2.97;;;;;;;-145.19;100.00;59999.88;5006212;28;20042;-67
2021/04/12 03:52:00;;;;;;;2.42;2.20;;;;;;;-145.19;100.00;59999.88;5000704;28;20525;-67
2021/04/12 03:54:27;;;;;;;2.67;2.28;;;;;;;-145.19;100.00;59999.88;5000209;28;20100;-67
2021/04/12 03:57:12;;;;;;;2.28;2.08;;;;;;;-145.19;100.00;59999.88;5003105;28;20046;-67
2021/04/12 04:00:00;;;;;;;2.50;2.30;;;;;;;-145.19;100.00;59999.88;5004651;28;20066;-67
2021/04/12 04:02:54;;;;;;;2.45;2.25;;;;;;;-145.19;100.00;59999.88;5000050;28;20050;-67
2021/04/12 04:05:59;;;;;;;2.83;2.10;;;;;;;-145.19;100.00;59999.88;5002453;28;20125;-67
2021/04/12 04:08:57;;;;;;;2.45;2.25;;;;;;;-145.19;100.00;59999.88;4998586;28;20050;-67
2021/04/12 04:11:46;;;;;;;2.72;2.20;;;;;;;-145.19;100.00;59999.88;4997023;28;20071;-67
2021/04/12 04:14:36;;;;;;;2.83;2.42;;;;;;;-145.19;100.00;59999.88;5000358;28;20042;-67
2021/04/12 04:17:27;;;;;;;2.38;2.10;;;;;;;-145.19;100.00;59999.88;5002196;28;20522;-67
2021/04/12 04:20:04;;;;;;;2.78;2.45;;;;;;;-145.19;100.00;59999.88;5003864;28;20466;-67
2021/04/12 04:22:52;;;;;;;2.63;2.28;;;;;;;-145.19;100.00;59999.88;5007408;28;20402;-67
2021/04/12 04:25:36;;;;;;;5.03;2.80;;;;;;;-145.19;100.00;59999.88;5004499;28;20070;-59
2021/04/12 04:28:30;;;;;;;2.83;2.50;;;;;;;-145.19;100.00;59999.88;5001822;28;20081;-65
2021/04/12 04:31:34;;;;;;;5.55;3.17;;;;;;;-145.19;100.00;59999.88;5007344;28;20050;-65
2021/04/12 04:34:17;;;;;;;7.70;3.10;;;;;;;-145.19;100.00;59999.88;5004151;28;20052;-68
2021/04/12 04:37:01;;;;;;;8.75;3.10;;;;;;;-145.19;100.00;59999.88;5008243;28;20037;-69
2021/04/12 04:40:06;;;;;;;4.40;3.50;;;;;;;-145.19;100.00;59999.88;5009412;28;20117;-68
2021/04/12 04:42:53;;;;;;;4.13;3.70;;;;;;;-145.19;100.00;59999.88;5006935;28;20058;-68
2021/04/12 04:45:52;;;;;;;7.70;5.72;;;;;;;-145.19;100.00;59999.88;5009134;28;20042;-68
2021/04/12 04:48:40;;;;;;;8.45;6.97;;;;;;;-145.19;100.00;59999.88;5004585;28;20065;-68
2021/04/12 04:51:23;;;;;;;5.75;5.15;;;;;;;-145.19;100.00;59999.88;5006951;28;20468;-69
2021/04/12 04:53:49;;;;;;;6.22;4.30;;;;;;;-145.19;100.00;59999.88;5022777;28;20104;-68
2021/04/12 04:56:28;;;;;;;4.93;4.53;;;;;;;-145.19;100.00;59999.88;5011141;28;20041;-69
2021/04/12 04:59:26;;;;;;;4.95;3.90;;;;;;;-145.19;100.00;59999.88;5006000;28;20548;-68
2021/04/12 05:02:18;;;;;;;5.05;4.55;;;;;;;-145.19;100.00;59999.88;5005718;28;20149;-68
2021/04/12 05:05:20;;;;;;;5.22;4.72;;;;;;;-145.19;100.00;59999.88;5005598;28;20157;-67
2021/04/12 05:08:09;;;;;;;5.40;4.90;;;;;;;-145.19;100.00;59999.88;5010080;28;20467;-68
2021/04/12 05:11:00;;;;;;;5.35;4.85;;;;;;;-145.19;100.00;59999.88;5010622;28;20049;-68
2021/04/12 05:13:48;;;;;;;6.75;5.05;;;;;;;-145.19;100.00;59999.88;5006303;28;20486;-67
2021/04/12 05:16:43;;;;;;;5.63;5.13;;;;;;;-145.19;100.00;59999.88;5005025;28;20054;-67
2021/04/12 05:19:48;;;;;;;6.18;5.57;;;;;;;-145.19;100.00;59999.88;5007265;28;20061;-69
2021/04/12 05:22:41;;;;;;;6.03;5.43;;;;;;;-145.19;100.00;59999.88;5034026;22;20092;-80
2021/04/12 05:25:47;;;;;;;5.32;4.82;;;;;;;-145.19;100.00;59999.88;5052170;28;20060;-80
2021/04/12 05:28:28;;;;;;;4.88;4.38;;;;;;;-145.19;100.00;59999.88;5059006;28;20117;-80
2021/04/12 05:31:05;;;;;;;5.25;4.75;;;;;;;-145.19;100.00;59999.88;5052692;28;20096;-80
2021/04/12 05:33:38;;;;;;;4.85;4.45;;;;;;;-145.19;100.00;59999.88;5059327;28;20063;-80
2021/04/12 05:36:39;;;;;;;5.40;4.97;;;;;;;-145.19;100.00;59999.88;5050776;28;20879;-80
2021/04/12 05:39:30;;;;;;;5.88;4.68;;;;;;;-145.19;100.00;59999.88;5042131;28;20144;-80
2021/04/12 05:42:30;;;;;;;5.40;4.65;;;;;;;-145.19;100.00;59999.88;5042954;28;20045;-80
2021/04/12 05:45:07;;;;;;;4.85;4.45;;;;;;;-145.19;100.00;59999.88;5054055;28;20045;-80
2021/04/12 05:48:11;;;;;;;4.88;4.47;;;;;;;-145.19;100.00;59999.88;5057654;28;20049;-79
2021/04/12 05:50:56;;;;;;;4.82;4.43;;;;;;;-145.19;100.00;59999.88;5040312;28;20055;-80
2021/04/12 05:53:51;;;;;;;4.72;4.30;;;;;;;-145.19;100.00;59999.88;5046734;28;20072;-80
2021/04/12 05:56:34;;;;;;;4.50;4.10;;;;;;;-145.19;100.00;59999.88;5054593;28;20436;-79
2021/04/12 05:59:01;;;;;;;4.78;4.38;;;;;;;-145.19;100.00;59999.88;5036811;28;20041;-80
2021/04/12 06:02:01;;;;;;;5.32;4.82;;;;;;;-145.19;100.00;59999.88;5055753;28;20072;-80
2021/04/12 06:04:46;;;;;;;7.75;5.10;;;;;;;-145.19;100.00;59999.88;5058251;28;20036;-80
2021/04/12 06:07:45;;;;;;;5.50;5.00;;;;;;;-145.19;100.00;59999.88;5040095;28;20049;-79
2021/04/12 06:10:42;;;;;;;6.20;5.57;;;;;;;-145.19;100.00;59999.88;5039870;28;20041;-80
2021/04/12 06:13:27;;;;;;;6.30;5.70;;;;;;;-145.19;100.00;59999.88;5053938;28;20068;-81
2021/04/12 06:16:18;;;;;;;6.43;5.82;;;;;;;-145.19;100.00;59999.88;5041242;28;20136;-79
2021/04/12 06:19:02;;;;;;;6.32;5.72;;;;;;;-145.19;100.00;59999.88;5055938;28;20037;-79
2021/04/12 06:22:06;;;;;;;7.15;6.03;;;;;;;-145.19;100.00;59999.88;5053436;28;20049;-80
2021/04/12 06:25:11;;;;;;;7.38;6.70;;;;;;;-145.19;100.00;59999.88;5071428;28;20044;-79
2021/04/12 06:27:59;;;;;;;9.68;8.77;;;;;;;-145.19;100.00;59999.88;5014891;28;20428;-80
2021/04/12 06:31:08;;;;;;;11.57;10.47;;;;;;;-145.19;100.00;59999.88;5047463;28;20044;-79
2021/04/12 06:33:52;;;;;;;;;;;;;;;-145.19;100.00;59999.88;5056600;28;20064;-79
2021/04/12 06:36:52;;;;;;;14.48;13.07;;;;;;;-145.19;100.00;59999.88;5068945;28;19935;-79
2021/04/12 06:39:46;;;;;;;13.23;11.93;;;;;;;-145.19;100.00;59999.88;5058914;28;20052;-79
2021/04/12 06:42:47;;;;;;;12.93;11.30;;;;;;;-145.19;100.00;59999.88;5041310;28;20045;-80
2021/04/12 06:45:44;;;;;;;11.65;7.75;;;;;;;-145.19;100.00;59999.88;5043566;28;20053;-79
2021/04/12 06:48:44;;;;;;;7.53;6.13;;;;;;;-145.19;100.00;59999.88;5049185;28;20374;-79
2021/04/12 06:51:31;;;;;;;5.90;5.03;;;;;;;-145.19;100.00;59999.88;5057199;28;20124;-79
2021/04/12 06:54:03;;;;;;;5.03;4.53;;;;;;;-145.19;100.00;59999.88;5049764;28;20045;-79
2021/04/12 06:56:39;;;;;;;6.60;4.60;;;;;;;-145.19;100.00;59999.88;5036548;28;20073;-79
2021/04/12 06:59:14;;;;;;;6.63;4.55;;;;;;;-145.19;100.00;59999.88;5048837;28;20340;-79
2021/04/12 07:02:21;;;;;;;4.68;3.80;;;;;;;-145.19;100.00;59999.88;5052512;28;20051;-79
2021/04/12 07:05:15;;;;;;;3.38;3.05;;;;;;;-145.19;100.00;59999.88;5052462;28;20469;-79
2021/04/12 07:08:03;;;;;;;3.55;2.47;;;;;;;-145.19;100.00;59999.88;5053074;28;20037;-80
2021/04/12 07:10:59;;;;;;;4.18;3.60;;;;;;;-145.19;100.00;59999.88;5070793;28;20119;-80
2021/04/12 07:13:51;;;;;;;3.53;3.22;;;;;;;-145.19;100.00;59999.88;5056776;28;20052;-80
2021/04/12 07:16:35;;;;;;;1.60;1.50;;;;;;;-145.19;100.00;59999.88;5049374;28;20106;-79
2021/04/12 07:19:19;;;;;;;1.50;1.40;;;;;;;-145.19;100.00;59999.88;5069445;28;20041;-80
2021/04/12 07:22:01;;;;;;;1.90;1.65;;;;;;;-145.19;100.00;59999.88;5049187;28;20057;-79
2021/04/12 07:24:49;;;;;;;3.78;3.42;;;;;;;-145.19;100.00;59999.88;5053602;28;20037;-79
2021/04/12 07:27:37;;;;;;;2.88;2.67;;;;;;;-145.19;100.00;59999.88;5058253;28;20386;-79
2021/04/12 07:30:21;;;;;;;3.45;3.15;;;;;;;-145.19;100.00;59999.88;5042578;28;20072;-79
2021/04/12 07:33:05;;;;;;;3.38;3.08;;;;;;;-145.19;100.00;59999.88;5038989;28;20053;-80
2021/04/12 07:35:56;;;;;;;2.75;2.55;;;;;;;-145.19;100.00;59999.88;5050294;28;20047;-79
2021/04/12 07:39:01;;;;;;;3.28;2.97;;;;;;;-145.19;100.00;59999.88;5050138;28;20060;-79
2021/04/12 07:41:36;;;;;;;3.80;3.50;;;;;;;-145.19;100.00;59999.88;5043754;28;20067;-79
2021/04/12 07:44:33;;;;;;;2.78;2.58;;;;;;;-145.19;100.00;59999.88;5057592;28;20444;-79
2021/04/12 07:47:38;;;;;;;2.40;2.20;;;;;;;-145.19;100.00;59999.88;5039052;28;20056;-79
2021/04/12 07:50:22;;;;;;;3.50;3.20;;;;;;;-145.19;100.00;59999.88;5047005;28;20041;-80
2021/04/12 07:53:13;;;;;;;3.38;3.08;;;;;;;-145.19;100.00;59999.88;5058601;28;20128;-79
2021/04/12 07:56:26;;;;;;;2.65;2.42;;;;;;;-145.19;100.00;59999.88;5071490;28;20401;-79
2021/04/12 07:59:26;;;;;;;2.80;2.60;;;;;;;-145.19;100.00;59999.88;5033948;28;20072;-79
2021/04/12 08:02:15;;;;;;;3.20;2.90;;;;;;;-145.19;100.00;59999.88;5049718;28;20075;-80
2021/04/12 08:05:31;;;;;;;3.20;2.90;;;;;;;-145.19;100.00;59999.88;5056742;28;20424;-79
2021/04/12 08:08:17;;;;;;;3.08;2.78;;;;;;;-145.19;100.00;59999.88;5029910;28;20045;-79
2021/04/12 08:10:47;;;;;;;2.97;2.67;;;;;;;-145.19;100.00;59999.88;5055220;28;20049;-79
2021/04/12 08:13:32;;;;;;;2.88;2.67;;;;;;;-145.19;100.00;59999.88;5056628;28;20759;-79
2021/04/12 08:16:08;;;;;;;2.90;2.65;;;;;;;-145.19;100.00;59999.88;5053203;28;20060;-79
2021/04/12 08:18:34;;;;;;;3.20;2.90;;;;;;;-145.19;100.00;59999.88;5055938;28;20053;-79
2021/04/12 08:21:20;;;;;;;2.80;2.60;;;;;;;-145.19;100.00;59999.88;5041714;28;20041;-79
2021/04/12 08:24:16;;;;;;;4.18;3.78;;;;;;;-145.19;100.00;59999.88;5057999;28;20045;-79
2021/04/12 08:27:01;;;;;;;3.20;3.00;;;;;;;-145.19;100.00;59999.88;5073382;28;20041;-79
2021/04/12 08:29:58;;;;;;;5.35;3.30;;;;;;;-145.19;100.00;59999.88;5054147;28;20056;-79
2021/04/12 08:32:55;;;;;;;2.83;2.63;;;;;;;-145.19;100.00;59999.88;5058934;28;20069;-79
2021/04/12 08:35:59;;;;;;;4.15;3.72;;;;;;;-145.19;100.00;59999.88;5054791;28;20099;-79
2021/04/12 08:38:44;;;;;;;4.38;4.00;;;;;;;-145.19;100.00;59999.88;5051935;28;20057;-79
2021/04/12 08:41:38;;;;;;;2.80;2.50;;;;;;;-145.19;100.00;59999.88;5057421;28;20744;-79
2021/04/12 08:44:27;;;;;;;2.85;2.65;;;;;;;-145.19;100.00;59999.88;5051918;28;20057;-79
2021/04/12 08:47:12;;;;;;;2.95;2.75;;;;;;;-145.19;100.00;59999.88;5051156;28;20075;-79
2021/04/12 08:50:01;;;;;;;3.00;2.80;;;;;;;-145.19;100.00;59999.88;5055048;28;20045;-79
2021/04/12 08:53:05;;;;;;;4.10;3.80;;;;;;;-145.19;100.00;59999.88;5054254;28;20458;-79
2021/04/12 08:56:00;;;;;;;4.72;4.13;;;;;;;-145.19;100.00;59999.88;5042134;28;20056;-79
2021/04/12 08:58:35;;;;;;;6.20;3.60;;;;;;;-145.19;100.00;59999.88;5057025;28;20052;-79
2021/04/12 09:01:19;;;;;;;4.55;4.13;;;;;;;-145.19;100.00;59999.88;5043637;28;20516;-79
2021/04/12 09:04:24;;;;;;;4.20;3.80;;;;;;;-145.19;100.00;59999.88;5054094;28;20053;-79
2021/04/12 09:07:28;;;;;;;4.32;3.67;;;;;;;-145.19;100.00;59999.88;5047924;28;20051;-79
2021/04/12 09:10:25;;;;;;;3.75;3.45;;;;;;;-145.19;100.00;59999.88;5058930;28;20068;-79
2021/04/12 09:13:28;;;;;;;3.30;3.10;;;;;;;-145.19;100.00;59999.88;5061775;28;20068;-79
2021/04/12 09:16:14;;;;;;;5.28;4.78;;;;;;;-145.19;100.00;59999.88;5069838;28;20049;-79
2021/04/12 09:18:59;;;;;;;3.28;3.08;;;;;;;-145.19;100.00;59999.88;5051077;28;20037;-79
2021/04/12 09:21:46;;;;;;;3.53;3.22;;;;;;;-145.19;100.00;59999.88;5041540;28;20117;-79
2021/04/12 09:24:37;;;;;;;3.58;3.28;;;;;;;-145.19;100.00;59999.88;5061175;28;20049;-79
2021/04/12 09:27:36;;;;;;;5.68;2.40;;;;;;;-145.19;100.00;59999.88;5054756;28;20040;-79
2021/04/12 09:30:37;;;;;;;5.23;3.70;;;;;;;-145.19;100.00;59999.88;5049386;28;20049;-79
2021/04/12 09:33:37;;;;;;;2.45;2.25;;;;;;;-145.19;100.00;59999.88;5059265;28;20306;-79
2021/04/12 09:36:49;;;;;;;3.45;2.30;;;;;;;-145.19;100.00;59999.88;5050285;28;20072;-79
2021/04/12 09:39:27;;;;;;;3.97;3.67;;;;;;;-145.19;100.00;59999.88;5028538;28;20132;-79
2021/04/12 09:42:07;;;;;;;4.30;3.60;;;;;;;-145.19;100.00;59999.88;5037592;28;20053;-79
2021/04/12 09:45:11;;;;;;;3.65;3.35;;;;;;;-145.19;100.00;59999.88;5042633;28;20805;-79
2021/04/12 09:47:40;;;;;;;2.70;2.50;;;;;;;-145.19;100.00;59999.88;5054480;28;20047;-79
2021/04/12 09:50:21;;;;;;;3.65;3.03;;;;;;;-145.19;100.00;59999.88;5058636;28;20121;-79
2021/04/12 09:53:13;;;;;;;3.42;3.08;;;;;;;-145.19;100.00;59999.88;5044711;28;20060;-79
2021/04/12 09:56:09;;;;;;;2.63;2.42;;;;;;;-145.19;100.00;59999.88;5050772;28;20065;-79
2021/04/12 09:58:57;;;;;;;2.90;2.38;;;;;;;-145.19;100.00;59999.88;5059561;28;20048;-79
2021/04/12 10:02:01;;;;;;;3.58;2.58;;;;;;;-145.19;100.00;59999.88;5039015;28;20049;-79
2021/04/12 10:04:42;;;;;;;4.28;2.92;;;;;;;-145.19;100.00;59999.88;5072740;28;20048;-79
2021/04/12 10:07:12;;;;;;;5.72;4.20;;;;;;;-145.19;100.00;59999.88;5041414;28;20112;-79
2021/04/12 10:09:41;;;;;;;3.80;3.45;;;;;;;-145.19;100.00;59999.88;5052062;28;20034;-79
2021/04/12 10:12:30;;;;;;;3.97;3.67;;;;;;;-145.19;100.00;59999.88;5052874;28;20075;-79
2021/04/12 10:15:12;;;;;;;4.18;3.85;;;;;;;-145.19;100.00;59999.88;5057651;28;20041;-79
2021/04/12 10:18:06;;;;;;;7.45;6.00;;;;;;;-145.19;100.00;59999.88;5060996;28;20040;-79
2021/04/12 10:20:48;;;;;;;16.73;14.23;;;;;;;-145.19;100.00;59999.88;5053560;28;20049;-79
2021/04/12 10:23:22;;;;;;;5.53;5.03;;;;;;;-145.19;100.00;59999.88;5053720;28;20092;-80
2021/04/12 10:25:58;;;;;;;3.95;3.55;;;;;;;-145.19;100.00;59999.88;5063599;28;20036;-80
2021/04/12 10:28:35;;;;;;;3.63;3.00;;;;;;;-145.19;100.00;59999.88;5054477;28;20102;-79
2021/04/12 10:31:26;;;;;;;7.85;5.72;;;;;;;-145.19;100.00;59999.88;5050354;28;20114;-79
2021/04/12 10:33:56;;;;;;;5.57;4.30;;;;;;;-145.19;100.00;59999.88;5055279;28;20048;-79
2021/04/12 10:36:40;;;;;;;3.70;3.33;;;;;;;-145.19;100.00;59999.88;5053537;28;20045;-79
2021/04/12 10:39:15;;;;;;;23.40;10.07;;;;;;;-145.19;100.00;59999.88;5054607;28;20041;-80
2021/04/12 10:41:49;;;;;;;7.55;5.80;;;;;;;-145.19;100.00;59999.88;5052982;28;20068;-80
2021/04/12 10:44:16;;;;;;;4.68;4.28;;;;;;;-145.19;100.00;59999.88;5052770;28;20049;-79
2021/04/12 10:47:10;;;;;;;6.05;5.45;;;;;;;-145.19;100.00;59999.88;5054634;28;20102;-80
2021/04/12 10:50:20;;;;;;;5.22;4.68;;;;;;;-145.19;100.00;59999.88;5052186;28;20049;-79
2021/04/12 10:53:21;;;;;;;14.00;10.03;;;;;;;-145.19;100.00;59999.88;5004272;28;20069;-79
2021/04/12 10:56:18;;;;;;;4.50;4.10;;;;;;;-145.19;100.00;59999.88;5045785;28;20065;-79
2021/04/12 10:58:58;;;;;;;5.63;5.13;;;;;;;-145.19;100.00;59999.88;5046274;28;20053;-80
2021/04/12 11:01:37;;;;;;;6.22;5.63;;;;;;;-145.19;100.00;59999.88;5053767;28;20040;-79
2021/04/12 11:04:27;;;;;;;4.65;4.25;;;;;;;-145.19;100.00;59999.88;5072799;28;20123;-79
2021/04/12 11:07:12;;;;;;;4.57;4.18;;;;;;;-145.19;100.00;59999.88;5054136;28;20135;-80
2021/04/12 11:10:17;;;;;;;89.88;32.95;;;;;;;-145.19;100.00;59999.88;5054493;28;20040;-80
2021/04/12 11:12:50;;;;;;;7.05;6.20;;;;;;;-145.19;100.00;59999.88;5052547;28;20045;-80
2021/04/12 11:15:54;;;;;;;15.05;12.70;;;;;;;-145.19;100.00;59999.88;5068379;28;20033;-80
2021/04/12 11:18:51;;;;;;;4.95;4.55;;;;;;;-145.19;100.00;59999.88;5048492;28;20068;-80
2021/04/12 11:21:31;;;;;;;7.63;4.85;;;;;;;-145.19;100.00;59999.88;5039777;28;20143;-79
2021/04/12 11:24:35;;;;;;;6.85;4.22;;;;;;;-145.19;100.00;59999.88;5035369;28;20080;-80
2021/04/12 11:27:20;;;;;;;21.77;10.05;;;;;;;-145.19;100.00;59999.88;5052061;28;20518;-80
2021/04/12 11:30:27;;;;;;;28.58;12.60;;;;;;;-145.19;100.00;59999.88;5055479;28;20045;-80
2021/04/12 11:33:17;;;;;;;10.60;8.02;;;;;;;-145.19;100.00;59999.88;5067200;28;20083;-80
2021/04/12 11:35:53;;;;;;;28.42;20.00;;;;;;;-145.19;100.00;59999.88;5051319;28;20037;-79
2021/04/12 11:38:41;;;;;;;4.95;4.53;;;;;;;-145.19;100.00;59999.88;5040311;28;20037;-80
2021/04/12 11:41:22;;;;;;;6.30;5.43;;;;;;;-145.19;100.00;59999.88;5069101;28;20523;-80
2021/04/12 11:43:56;;;;;;;15.70;9.85;;;;;;;-145.19;100.00;59999.88;5052953;28;20451;-80
2021/04/12 11:46:46;;;;;;;8.70;5.97;;;;;;;-145.19;100.00;59999.88;5052997;28;20110;-79
2021/04/12 11:49:29;;;;;;;4.05;3.65;;;;;;;-145.19;100.00;59999.88;5050215;28;20095;-80
2021/04/12 11:52:09;;;;;;;15.98;6.70;;;;;;;-145.19;100.00;59999.88;5051397;28;20098;-80
2021/04/12 11:54:54;;;;;;;5.80;4.35;;;;;;;-145.19;100.00;59999.88;5037617;28;20074;-79
2021/04/12 11:57:45;;;;;;;5.72;4.65;;;;;;;-145.19;100.00;59999.88;5054304;28;20048;-80
2021/04/12 12:00:18;;;;;;;5.13;4.53;;;;;;;-145.19;100.00;59999.88;5068433;28;20091;-80
2021/04/12 12:02:59;;;;;;;2.88;2.55;;;;;;;-145.19;100.00;59999.88;5053973;28;20053;-80
2021/04/12 12:05:40;;;;;;;15.77;9.35;;;;;;;-145.19;100.00;59999.88;5049356;28;20116;-80
2021/04/12 12:08:11;;;;;;;4.53;3.78;;;;;;;-145.19;100.00;59999.88;5033657;28;20662;-79
2021/04/12 12:11:04;;;;;;;5.63;5.05;;;;;;;-145.19;100.00;59999.88;5046154;28;20075;-79
2021/04/12 12:13:49;;;;;;;5.50;3.55;;;;;;;-145.19;100.00;59999.88;5054899;28;20037;-80
2021/04/12 12:16:26;;;;;;;8.82;6.22;;;;;;;-145.19;100.00;59999.88;5052059;28;20064;-80
2021/04/12 12:19:01;;;;;;;4.60;3.08;;;;;;;-145.19;100.00;59999.88;5049749;28;20045;-80
2021/04/12 12:21:47;;;;;;;2.70;2.50;;;;;;;-145.19;100.00;59999.88;5048124;28;20400;-80
2021/04/12 12:24:32;;;;;;;4.28;3.88;;;;;;;-145.19;100.00;59999.88;5035459;28;20052;-80
2021/04/12 12:27:22;;;;;;;5.45;4.25;;;;;;;-145.19;100.00;59999.88;5049643;28;20866;-80
2021/04/12 12:30:10;;;;;;;3.60;2.80;;;;;;;-145.19;100.00;59999.88;5038963;28;20049;-80
2021/04/12 12:33:00;;;;;;;3.97;2.75;;;;;;;-145.19;100.00;59999.88;5036017;28;20064;-80
2021/04/12 12:35:53;;;;;;;4.25;2.85;;;;;;;-145.19;100.00;59999.88;5050757;28;20396;-79
2021/04/12 12:38:34;;;;;;;3.95;3.50;;;;;;;-145.19;100.00;59999.88;5045519;28;20135;-79
2021/04/12 12:41:10;;;;;;;3.05;2.80;;;;;;;-145.19;100.00;59999.88;5071372;28;20047;-79
2021/04/12 12:43:39;;;;;;;3.70;2.90;;;;;;;-145.19;100.00;59999.88;5040930;28;20076;-80
2021/04/12 12:46:05;;;;;;;3.15;2.63;;;;;;;-145.19;100.00;59999.88;5054436;28;20067;-80